sensor_id;sensor_type;location;lat;lon;timestamp;temperature;humidity
41928;DHT22;27616;51.420;6.788;2022-11-20T00:00:51;-1.20;99.90
41928;DHT22;27616;51.420;6.788;2022-11-20T00:03:17;-1.20;99.90
41928;DHT22;27616;51.420;6.788;2022-11-20T00:05:43;-1.20;99.90
41928;DHT22;27616;51.420;6.788;2022-11-20T00:08:09;-1.20;99.90
41928;DHT22;27616;51.420;6.788;2022-11-20T00:10:39;-1.10;99.90
41928;DHT22;27616;51.420;6.788;2022-11-20T00:13:05;-1.10;99.90
41928;DHT22;27616;51.420;6.788;2022-11-20T00:15:31;-1.20;99.90
41928;DHT22;27616;51.420;6.788;2022-11-20T00:17:56;-1.30;99.90
41928;DHT22;27616;51.420;6.788;2022-11-20T00:20:22;-1.30;99.90
41928;DHT22;27616;51.420;6.788;2022-11-20T00:22:49;-1.30;99.90
41928;DHT22;27616;51.420;6.788;2022-11-20T00:25:14;-1.30;99.90
41928;DHT22;27616;51.420;6.788;2022-11-20T00:27:40;-1.20;99.90
41928;DHT22;27616;51.420;6.788;2022-11-20T00:30:06;-1.10;99.90
41928;DHT22;27616;51.420;6.788;2022-11-20T00:32:32;-1.10;99.90
41928;DHT22;27616;51.420;6.788;2022-11-20T00:34:58;-1.10;99.90
41928;DHT22;27616;51.420;6.788;2022-11-20T00:37:24;-1.10;99.90
41928;DHT22;27616;51.420;6.788;2022-11-20T00:39:49;-1.20;99.90
41928;DHT22;27616;51.420;6.788;2022-11-20T00:42:15;-1.20;99.90
41928;DHT22;27616;51.420;6.788;2022-11-20T00:44:41;-1.10;99.90
41928;DHT22;27616;51.420;6.788;2022-11-20T00:47:07;-1.10;99.90
41928;DHT22;27616;51.420;6.788;2022-11-20T00:49:32;-1.20;99.90
41928;DHT22;27616;51.420;6.788;2022-11-20T00:51:58;-1.20;99.90
41928;DHT22;27616;51.420;6.788;2022-11-20T00:54:24;-1.20;99.90
41928;DHT22;27616;51.420;6.788;2022-11-20T00:56:49;-1.10;99.90
41928;DHT22;27616;51.420;6.788;2022-11-20T00:59:15;-1.00;99.90
41928;DHT22;27616;51.420;6.788;2022-11-20T01:01:41;-1.10;99.90
41928;DHT22;27616;51.420;6.788;2022-11-20T01:04:06;-1.00;99.90
41928;DHT22;27616;51.420;6.788;2022-11-20T01:06:34;-1.00;99.90
41928;DHT22;27616;51.420;6.788;2022-11-20T01:09:03;-1.10;99.90
41928;DHT22;27616;51.420;6.788;2022-11-20T01:11:34;-1.30;99.90
41928;DHT22;27616;51.420;6.788;2022-11-20T01:14:01;-1.20;99.90
41928;DHT22;27616;51.420;6.788;2022-11-20T01:16:33;-1.30;99.90
41928;DHT22;27616;51.420;6.788;2022-11-20T01:19:00;-1.40;99.90
41928;DHT22;27616;51.420;6.788;2022-11-20T01:21:31;-1.50;99.90
41928;DHT22;27616;51.420;6.788;2022-11-20T01:23:58;-1.50;99.90
41928;DHT22;27616;51.420;6.788;2022-11-20T01:26:26;-1.40;99.90
41928;DHT22;27616;51.420;6.788;2022-11-20T01:28:53;-1.30;99.90
41928;DHT22;27616;51.420;6.788;2022-11-20T01:31:31;-1.30;99.90
41928;DHT22;27616;51.420;6.788;2022-11-20T01:33:58;-1.30;99.90
41928;DHT22;27616;51.420;6.788;2022-11-20T01:36:28;-1.30;99.90
41928;DHT22;27616;51.420;6.788;2022-11-20T01:38:56;-1.20;99.90
41928;DHT22;27616;51.420;6.788;2022-11-20T01:41:22;-1.20;99.90
41928;DHT22;27616;51.420;6.788;2022-11-20T01:44:11;-1.20;99.90
41928;DHT22;27616;51.420;6.788;2022-11-20T01:46:38;-1.10;99.90
41928;DHT22;27616;51.420;6.788;2022-11-20T01:49:11;-1.00;99.90
41928;DHT22;27616;51.420;6.788;2022-11-20T01:51:55;-1.00;99.90
41928;DHT22;27616;51.420;6.788;2022-11-20T01:54:28;-0.90;99.90
41928;DHT22;27616;51.420;6.788;2022-11-20T01:56:57;-0.90;99.90
41928;DHT22;27616;51.420;6.788;2022-11-20T01:59:26;-0.90;99.90
41928;DHT22;27616;51.420;6.788;2022-11-20T02:01:53;-0.90;99.90
41928;DHT22;27616;51.420;6.788;2022-11-20T02:04:19;-0.90;99.90
41928;DHT22;27616;51.420;6.788;2022-11-20T02:06:59;-0.90;99.90
41928;DHT22;27616;51.420;6.788;2022-11-20T02:09:25;-0.90;99.90
41928;DHT22;27616;51.420;6.788;2022-11-20T02:11:52;-1.00;99.90
41928;DHT22;27616;51.420;6.788;2022-11-20T02:14:18;-0.90;99.90
41928;DHT22;27616;51.420;6.788;2022-11-20T02:16:46;-0.80;99.90
41928;DHT22;27616;51.420;6.788;2022-11-20T02:19:23;-0.80;99.90
41928;DHT22;27616;51.420;6.788;2022-11-20T02:22:21;-0.80;99.90
41928;DHT22;27616;51.420;6.788;2022-11-20T02:24:51;-0.80;99.90
41928;DHT22;27616;51.420;6.788;2022-11-20T02:27:17;-0.80;99.90
41928;DHT22;27616;51.420;6.788;2022-11-20T02:29:55;-0.70;99.90
41928;DHT22;27616;51.420;6.788;2022-11-20T02:32:26;-0.60;99.90
41928;DHT22;27616;51.420;6.788;2022-11-20T02:34:52;-0.60;99.90
41928;DHT22;27616;51.420;6.788;2022-11-20T02:37:19;-0.60;99.90
41928;DHT22;27616;51.420;6.788;2022-11-20T02:39:47;-0.50;99.90
41928;DHT22;27616;51.420;6.788;2022-11-20T02:42:13;-0.50;99.90
41928;DHT22;27616;51.420;6.788;2022-11-20T02:44:39;-0.40;99.90
41928;DHT22;27616;51.420;6.788;2022-11-20T02:47:05;-0.30;99.90
41928;DHT22;27616;51.420;6.788;2022-11-20T02:49:31;-0.30;99.90
41928;DHT22;27616;51.420;6.788;2022-11-20T02:51:56;-0.20;99.90
41928;DHT22;27616;51.420;6.788;2022-11-20T02:54:23;-0.30;99.90
41928;DHT22;27616;51.420;6.788;2022-11-20T02:56:49;-0.30;99.90
41928;DHT22;27616;51.420;6.788;2022-11-20T02:59:14;-0.40;99.90
41928;DHT22;27616;51.420;6.788;2022-11-20T03:01:40;-0.30;99.90
41928;DHT22;27616;51.420;6.788;2022-11-20T03:04:06;-0.30;99.90
41928;DHT22;27616;51.420;6.788;2022-11-20T03:06:32;-0.30;99.90
41928;DHT22;27616;51.420;6.788;2022-11-20T03:08:58;-0.30;99.90
41928;DHT22;27616;51.420;6.788;2022-11-20T03:11:23;-0.30;99.90
41928;DHT22;27616;51.420;6.788;2022-11-20T03:13:49;-0.30;99.90
41928;DHT22;27616;51.420;6.788;2022-11-20T03:16:20;-0.20;99.90
41928;DHT22;27616;51.420;6.788;2022-11-20T03:18:46;-0.10;99.90
41928;DHT22;27616;51.420;6.788;2022-11-20T03:21:13;-0.10;99.90
41928;DHT22;27616;51.420;6.788;2022-11-20T03:23:40;-0.10;99.90
41928;DHT22;27616;51.420;6.788;2022-11-20T03:28:36;0.10;99.90
41928;DHT22;27616;51.420;6.788;2022-11-20T03:31:11;0.00;99.90
41928;DHT22;27616;51.420;6.788;2022-11-20T03:33:37;0.00;99.90
41928;DHT22;27616;51.420;6.788;2022-11-20T03:36:05;0.00;99.90
41928;DHT22;27616;51.420;6.788;2022-11-20T03:38:31;0.00;99.90
41928;DHT22;27616;51.420;6.788;2022-11-20T03:41:00;0.00;99.90
41928;DHT22;27616;51.420;6.788;2022-11-20T03:43:26;0.10;99.90
41928;DHT22;27616;51.420;6.788;2022-11-20T03:45:52;0.20;99.90
41928;DHT22;27616;51.420;6.788;2022-11-20T03:48:17;0.30;99.90
41928;DHT22;27616;51.420;6.788;2022-11-20T03:50:43;0.30;99.90
41928;DHT22;27616;51.420;6.788;2022-11-20T03:53:09;0.40;99.90
41928;DHT22;27616;51.420;6.788;2022-11-20T03:55:34;0.30;99.90
41928;DHT22;27616;51.420;6.788;2022-11-20T03:58:00;0.40;99.90
41928;DHT22;27616;51.420;6.788;2022-11-20T04:00:26;0.50;99.90
41928;DHT22;27616;51.420;6.788;2022-11-20T04:02:52;0.50;99.90
41928;DHT22;27616;51.420;6.788;2022-11-20T04:05:18;0.50;99.90
41928;DHT22;27616;51.420;6.788;2022-11-20T04:07:43;0.50;99.90
41928;DHT22;27616;51.420;6.788;2022-11-20T04:10:09;0.50;99.90
41928;DHT22;27616;51.420;6.788;2022-11-20T04:12:35;0.60;99.90
41928;DHT22;27616;51.420;6.788;2022-11-20T04:15:00;0.70;99.90
41928;DHT22;27616;51.420;6.788;2022-11-20T04:17:26;0.70;99.90
41928;DHT22;27616;51.420;6.788;2022-11-20T04:19:52;0.70;99.90
41928;DHT22;27616;51.420;6.788;2022-11-20T04:22:17;0.60;99.90
41928;DHT22;27616;51.420;6.788;2022-11-20T04:24:43;0.70;99.90
41928;DHT22;27616;51.420;6.788;2022-11-20T04:27:09;0.70;99.90
41928;DHT22;27616;51.420;6.788;2022-11-20T04:29:34;0.80;99.90
41928;DHT22;27616;51.420;6.788;2022-11-20T04:32:00;0.80;99.90
41928;DHT22;27616;51.420;6.788;2022-11-20T04:34:26;0.90;99.90
41928;DHT22;27616;51.420;6.788;2022-11-20T04:36:51;0.90;99.90
41928;DHT22;27616;51.420;6.788;2022-11-20T04:39:17;0.90;99.90
41928;DHT22;27616;51.420;6.788;2022-11-20T04:41:43;0.90;99.90
41928;DHT22;27616;51.420;6.788;2022-11-20T04:44:08;0.90;99.90
41928;DHT22;27616;51.420;6.788;2022-11-20T04:46:37;0.90;99.90
41928;DHT22;27616;51.420;6.788;2022-11-20T04:49:04;0.90;99.90
41928;DHT22;27616;51.420;6.788;2022-11-20T04:51:30;0.90;99.90
41928;DHT22;27616;51.420;6.788;2022-11-20T04:53:56;1.00;99.90
41928;DHT22;27616;51.420;6.788;2022-11-20T04:56:21;1.10;99.90
41928;DHT22;27616;51.420;6.788;2022-11-20T04:58:48;1.10;99.90
41928;DHT22;27616;51.420;6.788;2022-11-20T05:01:16;1.10;99.90
41928;DHT22;27616;51.420;6.788;2022-11-20T05:03:42;1.20;99.90
41928;DHT22;27616;51.420;6.788;2022-11-20T05:06:10;1.20;99.90
41928;DHT22;27616;51.420;6.788;2022-11-20T05:08:36;1.30;99.90
41928;DHT22;27616;51.420;6.788;2022-11-20T05:11:11;1.30;99.90
41928;DHT22;27616;51.420;6.788;2022-11-20T05:13:37;1.30;99.90
41928;DHT22;27616;51.420;6.788;2022-11-20T05:16:04;1.30;99.90
41928;DHT22;27616;51.420;6.788;2022-11-20T05:18:31;1.30;99.90
41928;DHT22;27616;51.420;6.788;2022-11-20T05:20:57;1.40;99.90
41928;DHT22;27616;51.420;6.788;2022-11-20T05:23:23;1.40;99.90
41928;DHT22;27616;51.420;6.788;2022-11-20T05:25:53;1.40;99.90
41928;DHT22;27616;51.420;6.788;2022-11-20T05:28:19;1.40;99.90
41928;DHT22;27616;51.420;6.788;2022-11-20T05:30:44;1.50;99.90
41928;DHT22;27616;51.420;6.788;2022-11-20T05:33:10;1.50;99.90
41928;DHT22;27616;51.420;6.788;2022-11-20T05:35:36;1.50;99.90
41928;DHT22;27616;51.420;6.788;2022-11-20T05:38:01;1.50;99.90
41928;DHT22;27616;51.420;6.788;2022-11-20T05:40:27;1.40;99.90
41928;DHT22;27616;51.420;6.788;2022-11-20T05:42:53;1.40;99.90
41928;DHT22;27616;51.420;6.788;2022-11-20T05:45:19;1.40;99.90
41928;DHT22;27616;51.420;6.788;2022-11-20T05:47:44;1.40;99.90
41928;DHT22;27616;51.420;6.788;2022-11-20T05:50:10;1.40;99.90
41928;DHT22;27616;51.420;6.788;2022-11-20T05:52:35;1.40;99.90
41928;DHT22;27616;51.420;6.788;2022-11-20T05:55:01;1.40;99.90
41928;DHT22;27616;51.420;6.788;2022-11-20T05:57:27;1.50;99.90
41928;DHT22;27616;51.420;6.788;2022-11-20T05:59:53;1.50;99.90
41928;DHT22;27616;51.420;6.788;2022-11-20T06:02:18;1.50;99.90
41928;DHT22;27616;51.420;6.788;2022-11-20T06:04:44;1.50;99.90
41928;DHT22;27616;51.420;6.788;2022-11-20T06:07:10;1.50;99.90
41928;DHT22;27616;51.420;6.788;2022-11-20T06:09:35;1.40;99.90
41928;DHT22;27616;51.420;6.788;2022-11-20T06:12:01;1.40;99.90
41928;DHT22;27616;51.420;6.788;2022-11-20T06:14:27;1.50;99.90
41928;DHT22;27616;51.420;6.788;2022-11-20T06:16:53;1.50;99.90
41928;DHT22;27616;51.420;6.788;2022-11-20T06:19:18;1.50;99.90
41928;DHT22;27616;51.420;6.788;2022-11-20T06:21:44;1.50;99.90
41928;DHT22;27616;51.420;6.788;2022-11-20T06:24:10;1.50;99.90
41928;DHT22;27616;51.420;6.788;2022-11-20T06:26:36;1.40;99.90
41928;DHT22;27616;51.420;6.788;2022-11-20T06:29:02;1.40;99.90
41928;DHT22;27616;51.420;6.788;2022-11-20T06:31:28;1.30;99.90
41928;DHT22;27616;51.420;6.788;2022-11-20T06:33:54;1.30;99.90
41928;DHT22;27616;51.420;6.788;2022-11-20T06:36:22;1.30;99.90
41928;DHT22;27616;51.420;6.788;2022-11-20T06:38:48;1.30;99.90
41928;DHT22;27616;51.420;6.788;2022-11-20T06:41:16;1.30;99.90
41928;DHT22;27616;51.420;6.788;2022-11-20T06:43:42;1.20;99.90
41928;DHT22;27616;51.420;6.788;2022-11-20T06:46:09;1.10;99.90
41928;DHT22;27616;51.420;6.788;2022-11-20T06:48:35;1.20;99.90
41928;DHT22;27616;51.420;6.788;2022-11-20T06:51:03;1.20;99.90
41928;DHT22;27616;51.420;6.788;2022-11-20T06:53:29;1.30;99.90
41928;DHT22;27616;51.420;6.788;2022-11-20T06:55:56;1.20;99.90
41928;DHT22;27616;51.420;6.788;2022-11-20T06:58:23;1.30;99.90
41928;DHT22;27616;51.420;6.788;2022-11-20T07:00:51;1.40;99.90
41928;DHT22;27616;51.420;6.788;2022-11-20T07:03:17;1.40;99.90
41928;DHT22;27616;51.420;6.788;2022-11-20T07:05:42;1.40;99.90
41928;DHT22;27616;51.420;6.788;2022-11-20T07:08:09;1.40;99.90
41928;DHT22;27616;51.420;6.788;2022-11-20T07:10:35;1.30;99.90
41928;DHT22;27616;51.420;6.788;2022-11-20T07:13:01;1.20;99.90
41928;DHT22;27616;51.420;6.788;2022-11-20T07:15:27;1.20;99.90
41928;DHT22;27616;51.420;6.788;2022-11-20T07:17:52;1.20;99.90
41928;DHT22;27616;51.420;6.788;2022-11-20T07:20:18;1.10;99.90
41928;DHT22;27616;51.420;6.788;2022-11-20T07:22:44;1.10;99.90
41928;DHT22;27616;51.420;6.788;2022-11-20T07:25:10;1.10;99.90
41928;DHT22;27616;51.420;6.788;2022-11-20T07:27:36;1.20;99.90
41928;DHT22;27616;51.420;6.788;2022-11-20T07:30:03;1.20;99.90
41928;DHT22;27616;51.420;6.788;2022-11-20T07:32:29;1.30;99.90
41928;DHT22;27616;51.420;6.788;2022-11-20T07:34:55;1.40;99.90
41928;DHT22;27616;51.420;6.788;2022-11-20T07:37:20;1.40;99.90
41928;DHT22;27616;51.420;6.788;2022-11-20T07:39:47;1.40;99.90
41928;DHT22;27616;51.420;6.788;2022-11-20T07:42:12;1.40;99.90
41928;DHT22;27616;51.420;6.788;2022-11-20T07:44:38;1.40;99.90
41928;DHT22;27616;51.420;6.788;2022-11-20T07:47:05;1.50;99.90
41928;DHT22;27616;51.420;6.788;2022-11-20T07:49:30;1.50;99.90
41928;DHT22;27616;51.420;6.788;2022-11-20T07:51:56;1.60;99.90
41928;DHT22;27616;51.420;6.788;2022-11-20T07:54:22;1.70;99.90
41928;DHT22;27616;51.420;6.788;2022-11-20T07:56:49;1.80;99.90
41928;DHT22;27616;51.420;6.788;2022-11-20T07:59:15;1.90;99.90
41928;DHT22;27616;51.420;6.788;2022-11-20T08:01:42;1.90;99.90
41928;DHT22;27616;51.420;6.788;2022-11-20T08:04:08;2.00;99.90
41928;DHT22;27616;51.420;6.788;2022-11-20T08:06:35;2.00;99.90
41928;DHT22;27616;51.420;6.788;2022-11-20T08:09:02;2.10;99.90
41928;DHT22;27616;51.420;6.788;2022-11-20T08:11:28;2.20;99.90
41928;DHT22;27616;51.420;6.788;2022-11-20T08:14:12;2.20;99.90
41928;DHT22;27616;51.420;6.788;2022-11-20T08:16:39;2.20;99.90
41928;DHT22;27616;51.420;6.788;2022-11-20T08:19:05;2.10;99.90
41928;DHT22;27616;51.420;6.788;2022-11-20T08:21:31;2.00;99.90
41928;DHT22;27616;51.420;6.788;2022-11-20T08:23:57;2.00;99.90
41928;DHT22;27616;51.420;6.788;2022-11-20T08:26:24;2.10;99.90
41928;DHT22;27616;51.420;6.788;2022-11-20T08:28:53;2.00;99.90
41928;DHT22;27616;51.420;6.788;2022-11-20T08:31:20;2.00;99.90
41928;DHT22;27616;51.420;6.788;2022-11-20T08:33:46;2.10;99.90
41928;DHT22;27616;51.420;6.788;2022-11-20T08:36:11;2.20;99.90
41928;DHT22;27616;51.420;6.788;2022-11-20T08:38:37;2.30;99.90
41928;DHT22;27616;51.420;6.788;2022-11-20T08:41:04;2.40;99.90
41928;DHT22;27616;51.420;6.788;2022-11-20T08:43:48;2.40;99.90
41928;DHT22;27616;51.420;6.788;2022-11-20T08:46:17;2.50;99.90
41928;DHT22;27616;51.420;6.788;2022-11-20T08:48:43;2.60;99.90
41928;DHT22;27616;51.420;6.788;2022-11-20T08:51:09;2.60;99.90
41928;DHT22;27616;51.420;6.788;2022-11-20T08:53:35;2.60;99.90
41928;DHT22;27616;51.420;6.788;2022-11-20T08:56:01;2.60;99.90
41928;DHT22;27616;51.420;6.788;2022-11-20T08:58:26;2.70;99.90
41928;DHT22;27616;51.420;6.788;2022-11-20T09:00:53;2.80;99.90
41928;DHT22;27616;51.420;6.788;2022-11-20T09:03:18;2.90;99.90
41928;DHT22;27616;51.420;6.788;2022-11-20T09:05:44;2.90;99.90
41928;DHT22;27616;51.420;6.788;2022-11-20T09:08:10;2.90;99.90
41928;DHT22;27616;51.420;6.788;2022-11-20T09:10:36;3.00;99.90
41928;DHT22;27616;51.420;6.788;2022-11-20T09:13:02;3.00;99.90
41928;DHT22;27616;51.420;6.788;2022-11-20T09:15:28;3.10;99.90
41928;DHT22;27616;51.420;6.788;2022-11-20T09:17:55;3.10;99.90
41928;DHT22;27616;51.420;6.788;2022-11-20T09:20:21;3.00;99.90
41928;DHT22;27616;51.420;6.788;2022-11-20T09:22:47;3.10;99.90
41928;DHT22;27616;51.420;6.788;2022-11-20T09:25:12;3.00;99.90
41928;DHT22;27616;51.420;6.788;2022-11-20T09:27:38;3.00;99.90
41928;DHT22;27616;51.420;6.788;2022-11-20T09:30:04;2.90;99.90
41928;DHT22;27616;51.420;6.788;2022-11-20T09:32:30;2.90;99.90
41928;DHT22;27616;51.420;6.788;2022-11-20T09:34:56;2.90;99.90
41928;DHT22;27616;51.420;6.788;2022-11-20T09:37:22;2.80;99.90
41928;DHT22;27616;51.420;6.788;2022-11-20T09:39:48;2.90;99.90
41928;DHT22;27616;51.420;6.788;2022-11-20T09:42:41;3.30;99.90
41928;DHT22;27616;51.420;6.788;2022-11-20T09:50:27;3.60;99.90
41928;DHT22;27616;51.420;6.788;2022-11-20T09:55:38;3.50;99.90
41928;DHT22;27616;51.420;6.788;2022-11-20T09:58:18;3.70;99.90
41928;DHT22;27616;51.420;6.788;2022-11-20T10:00:47;3.90;99.90
41928;DHT22;27616;51.420;6.788;2022-11-20T10:03:19;4.10;99.90
41928;DHT22;27616;51.420;6.788;2022-11-20T10:05:53;4.30;99.90
41928;DHT22;27616;51.420;6.788;2022-11-20T10:08:27;4.30;99.90
41928;DHT22;27616;51.420;6.788;2022-11-20T10:30:18;4.20;99.90
41928;DHT22;27616;51.420;6.788;2022-11-20T10:33:35;4.20;99.90
41928;DHT22;27616;51.420;6.788;2022-11-20T10:35:45;4.20;99.90
41928;DHT22;27616;51.420;6.788;2022-11-20T10:38:37;4.20;99.90
41928;DHT22;27616;51.420;6.788;2022-11-20T10:41:06;4.20;99.90
41928;DHT22;27616;51.420;6.788;2022-11-20T10:44:03;4.10;99.90
41928;DHT22;27616;51.420;6.788;2022-11-20T10:46:39;4.20;99.90
41928;DHT22;27616;51.420;6.788;2022-11-20T10:49:17;4.20;99.90
41928;DHT22;27616;51.420;6.788;2022-11-20T10:52:13;4.30;99.90
41928;DHT22;27616;51.420;6.788;2022-11-20T10:54:56;4.30;99.90
41928;DHT22;27616;51.420;6.788;2022-11-20T11:00:12;4.50;99.90
41928;DHT22;27616;51.420;6.788;2022-11-20T11:07:58;4.50;99.90
41928;DHT22;27616;51.420;6.788;2022-11-20T11:10:26;4.60;99.90
41928;DHT22;27616;51.420;6.788;2022-11-20T11:12:54;4.50;99.90
41928;DHT22;27616;51.420;6.788;2022-11-20T11:17:52;4.40;99.90
41928;DHT22;27616;51.420;6.788;2022-11-20T11:20:25;4.30;99.90
41928;DHT22;27616;51.420;6.788;2022-11-20T11:22:52;4.20;99.90
41928;DHT22;27616;51.420;6.788;2022-11-20T11:25:27;4.20;99.90
41928;DHT22;27616;51.420;6.788;2022-11-20T11:27:56;4.20;99.90
41928;DHT22;27616;51.420;6.788;2022-11-20T11:30:23;4.20;99.90
41928;DHT22;27616;51.420;6.788;2022-11-20T11:32:49;4.20;99.90
41928;DHT22;27616;51.420;6.788;2022-11-20T11:37:49;4.30;99.90
41928;DHT22;27616;51.420;6.788;2022-11-20T11:40:18;4.30;99.90
41928;DHT22;27616;51.420;6.788;2022-11-20T11:42:56;4.30;99.90
41928;DHT22;27616;51.420;6.788;2022-11-20T11:45:23;4.40;99.90
41928;DHT22;27616;51.420;6.788;2022-11-20T11:47:50;4.40;99.90
41928;DHT22;27616;51.420;6.788;2022-11-20T11:50:20;4.40;99.90
41928;DHT22;27616;51.420;6.788;2022-11-20T11:53:09;4.40;99.90
41928;DHT22;27616;51.420;6.788;2022-11-20T11:55:52;4.40;99.90
41928;DHT22;27616;51.420;6.788;2022-11-20T11:58:41;4.50;99.90
41928;DHT22;27616;51.420;6.788;2022-11-20T12:04:37;4.50;99.90
41928;DHT22;27616;51.420;6.788;2022-11-20T12:06:36;4.50;99.90
41928;DHT22;27616;51.420;6.788;2022-11-20T12:09:08;4.50;99.90
41928;DHT22;27616;51.420;6.788;2022-11-20T12:11:44;4.40;99.90
41928;DHT22;27616;51.420;6.788;2022-11-20T12:14:19;4.50;99.90
41928;DHT22;27616;51.420;6.788;2022-11-20T12:16:49;4.50;99.90
41928;DHT22;27616;51.420;6.788;2022-11-20T12:19:15;4.50;99.90
41928;DHT22;27616;51.420;6.788;2022-11-20T12:22:06;4.50;99.90
41928;DHT22;27616;51.420;6.788;2022-11-20T12:30:23;4.50;99.90
41928;DHT22;27616;51.420;6.788;2022-11-20T12:46:35;4.70;99.90
41928;DHT22;27616;51.420;6.788;2022-11-20T12:49:35;4.60;99.90
41928;DHT22;27616;51.420;6.788;2022-11-20T12:52:20;4.70;99.90
41928;DHT22;27616;51.420;6.788;2022-11-20T13:00:07;4.80;99.90
41928;DHT22;27616;51.420;6.788;2022-11-20T13:08:31;4.80;99.90
41928;DHT22;27616;51.420;6.788;2022-11-20T13:11:01;4.90;99.90
41928;DHT22;27616;51.420;6.788;2022-11-20T13:16:36;4.90;99.90
41928;DHT22;27616;51.420;6.788;2022-11-20T13:19:04;4.80;99.90
41928;DHT22;27616;51.420;6.788;2022-11-20T13:21:43;4.80;99.90
41928;DHT22;27616;51.420;6.788;2022-11-20T13:26:38;4.80;99.90
41928;DHT22;27616;51.420;6.788;2022-11-20T13:29:20;4.70;99.90
41928;DHT22;27616;51.420;6.788;2022-11-20T13:31:48;4.70;99.90
41928;DHT22;27616;51.420;6.788;2022-11-20T13:34:24;4.80;99.90
41928;DHT22;27616;51.420;6.788;2022-11-20T13:36:53;4.70;99.90
41928;DHT22;27616;51.420;6.788;2022-11-20T13:39:33;4.70;99.90
41928;DHT22;27616;51.420;6.788;2022-11-20T13:44:42;4.60;99.90
41928;DHT22;27616;51.420;6.788;2022-11-20T13:47:24;4.60;99.90
41928;DHT22;27616;51.420;6.788;2022-11-20T13:49:51;4.60;99.90
41928;DHT22;27616;51.420;6.788;2022-11-20T14:02:19;4.60;99.90
41928;DHT22;27616;51.420;6.788;2022-11-20T14:04:48;4.60;99.90
41928;DHT22;27616;51.420;6.788;2022-11-20T14:07:16;4.60;99.90
41928;DHT22;27616;51.420;6.788;2022-11-20T14:09:56;4.50;99.90
41928;DHT22;27616;51.420;6.788;2022-11-20T14:12:27;4.50;99.90
41928;DHT22;27616;51.420;6.788;2022-11-20T14:14:54;4.50;99.90
41928;DHT22;27616;51.420;6.788;2022-11-20T14:17:23;4.50;99.90
41928;DHT22;27616;51.420;6.788;2022-11-20T14:19:51;4.40;99.90
41928;DHT22;27616;51.420;6.788;2022-11-20T14:22:23;4.40;99.90
41928;DHT22;27616;51.420;6.788;2022-11-20T14:25:06;4.40;99.90
41928;DHT22;27616;51.420;6.788;2022-11-20T14:27:41;4.40;99.90
41928;DHT22;27616;51.420;6.788;2022-11-20T14:30:18;4.40;99.90
41928;DHT22;27616;51.420;6.788;2022-11-20T14:32:48;4.40;99.90
41928;DHT22;27616;51.420;6.788;2022-11-20T14:35:24;4.40;99.90
41928;DHT22;27616;51.420;6.788;2022-11-20T14:37:51;4.40;99.90
41928;DHT22;27616;51.420;6.788;2022-11-20T14:40:34;4.40;99.90
41928;DHT22;27616;51.420;6.788;2022-11-20T14:43:02;4.40;99.90
41928;DHT22;27616;51.420;6.788;2022-11-20T14:45:30;4.40;99.90
41928;DHT22;27616;51.420;6.788;2022-11-20T14:47:58;4.40;99.90
41928;DHT22;27616;51.420;6.788;2022-11-20T14:50:27;4.40;99.90
41928;DHT22;27616;51.420;6.788;2022-11-20T14:52:55;4.40;99.90
41928;DHT22;27616;51.420;6.788;2022-11-20T14:55:38;4.40;99.90
41928;DHT22;27616;51.420;6.788;2022-11-20T14:58:06;4.40;99.90
41928;DHT22;27616;51.420;6.788;2022-11-20T15:00:34;4.40;99.90
41928;DHT22;27616;51.420;6.788;2022-11-20T15:03:00;4.40;99.90
41928;DHT22;27616;51.420;6.788;2022-11-20T15:05:45;4.40;99.90
41928;DHT22;27616;51.420;6.788;2022-11-20T15:08:12;4.40;99.90
41928;DHT22;27616;51.420;6.788;2022-11-20T15:10:45;4.30;99.90
41928;DHT22;27616;51.420;6.788;2022-11-20T15:13:13;4.30;99.90
41928;DHT22;27616;51.420;6.788;2022-11-20T15:15:47;4.30;99.90
41928;DHT22;27616;51.420;6.788;2022-11-20T15:18:16;4.30;99.90
41928;DHT22;27616;51.420;6.788;2022-11-20T15:20:42;4.30;99.90
41928;DHT22;27616;51.420;6.788;2022-11-20T15:23:13;4.20;99.90
41928;DHT22;27616;51.420;6.788;2022-11-20T15:25:40;4.20;99.90
41928;DHT22;27616;51.420;6.788;2022-11-20T15:28:16;4.20;99.90
41928;DHT22;27616;51.420;6.788;2022-11-20T15:30:42;4.20;99.90
41928;DHT22;27616;51.420;6.788;2022-11-20T15:33:09;4.20;99.90
41928;DHT22;27616;51.420;6.788;2022-11-20T15:35:35;4.20;99.90
41928;DHT22;27616;51.420;6.788;2022-11-20T15:38:00;4.20;99.90
41928;DHT22;27616;51.420;6.788;2022-11-20T15:40:26;4.20;99.90
41928;DHT22;27616;51.420;6.788;2022-11-20T15:42:52;4.20;99.90
41928;DHT22;27616;51.420;6.788;2022-11-20T15:45:44;4.30;99.90
41928;DHT22;27616;51.420;6.788;2022-11-20T15:51:06;4.30;99.90
41928;DHT22;27616;51.420;6.788;2022-11-20T15:53:39;4.40;99.90
41928;DHT22;27616;51.420;6.788;2022-11-20T15:56:06;4.40;99.90
41928;DHT22;27616;51.420;6.788;2022-11-20T15:58:32;4.40;99.90
41928;DHT22;27616;51.420;6.788;2022-11-20T16:00:57;4.40;99.90
41928;DHT22;27616;51.420;6.788;2022-11-20T16:03:23;4.50;99.90
41928;DHT22;27616;51.420;6.788;2022-11-20T16:05:49;4.40;99.90
41928;DHT22;27616;51.420;6.788;2022-11-20T16:08:15;4.40;99.90
41928;DHT22;27616;51.420;6.788;2022-11-20T16:10:41;4.40;99.90
41928;DHT22;27616;51.420;6.788;2022-11-20T16:13:13;4.40;99.90
41928;DHT22;27616;51.420;6.788;2022-11-20T16:16:01;4.40;99.90
41928;DHT22;27616;51.420;6.788;2022-11-20T16:18:27;4.40;99.90
41928;DHT22;27616;51.420;6.788;2022-11-20T16:20:54;4.40;99.90
41928;DHT22;27616;51.420;6.788;2022-11-20T16:23:20;4.40;99.90
41928;DHT22;27616;51.420;6.788;2022-11-20T16:25:47;4.40;99.90
41928;DHT22;27616;51.420;6.788;2022-11-20T16:28:13;4.50;99.90
41928;DHT22;27616;51.420;6.788;2022-11-20T16:30:39;4.50;99.90
41928;DHT22;27616;51.420;6.788;2022-11-20T16:33:10;4.50;99.90
41928;DHT22;27616;51.420;6.788;2022-11-20T16:35:37;4.50;99.90
41928;DHT22;27616;51.420;6.788;2022-11-20T16:38:03;4.50;99.90
41928;DHT22;27616;51.420;6.788;2022-11-20T16:40:29;4.50;99.90
41928;DHT22;27616;51.420;6.788;2022-11-20T16:42:55;4.50;99.90
41928;DHT22;27616;51.420;6.788;2022-11-20T16:45:20;4.50;99.90
41928;DHT22;27616;51.420;6.788;2022-11-20T16:47:46;4.50;99.90
41928;DHT22;27616;51.420;6.788;2022-11-20T16:50:12;4.50;99.90
41928;DHT22;27616;51.420;6.788;2022-11-20T16:52:38;4.60;99.90
41928;DHT22;27616;51.420;6.788;2022-11-20T16:55:04;4.60;99.90
41928;DHT22;27616;51.420;6.788;2022-11-20T16:57:31;4.60;99.90
41928;DHT22;27616;51.420;6.788;2022-11-20T16:59:59;4.60;99.90
41928;DHT22;27616;51.420;6.788;2022-11-20T17:02:25;4.60;99.90
41928;DHT22;27616;51.420;6.788;2022-11-20T17:04:52;4.60;99.90
41928;DHT22;27616;51.420;6.788;2022-11-20T17:07:18;4.60;99.90
41928;DHT22;27616;51.420;6.788;2022-11-20T17:09:43;4.70;99.90
41928;DHT22;27616;51.420;6.788;2022-11-20T17:12:09;4.70;99.90
41928;DHT22;27616;51.420;6.788;2022-11-20T17:14:35;4.70;99.90
41928;DHT22;27616;51.420;6.788;2022-11-20T17:17:01;4.80;99.90
41928;DHT22;27616;51.420;6.788;2022-11-20T17:19:27;4.80;99.90
41928;DHT22;27616;51.420;6.788;2022-11-20T17:21:53;4.80;99.90
41928;DHT22;27616;51.420;6.788;2022-11-20T17:24:18;4.80;99.90
41928;DHT22;27616;51.420;6.788;2022-11-20T17:26:44;4.90;99.90
41928;DHT22;27616;51.420;6.788;2022-11-20T17:29:12;4.80;99.90